Time;durP1;ratioP1;P1;durP2;ratioP2;P2;SDS_P1;SDS_P2;PMS_P1;PMS_P2;Temp;Humidity;BMP_temperature;BMP_pressure;BME280_temperature;BME280_humidity;BME280_pressure;Samples;Min_cycle;Max_cycle;Signal;HPM_P1;HPM_P2
2023/09/18 00:00:50;;;;;;;191.52;65.15;;;15.80;99.90;;;;;;5157681;27;20047;-25
2023/09/18 00:03:20;;;;;;;201.32;66.00;;;15.90;99.90;;;;;;5158606;27;20051;-25
2023/09/18 00:05:47;;;;;;;188.93;63.80;;;15.80;99.90;;;;;;5159752;27;20129;-24
2023/09/18 00:08:14;;;;;;;193.85;66.03;;;15.80;99.90;;;;;;5140560;27;20058;-25
2023/09/18 00:10:40;;;;;;;205.63;68.22;;;15.70;99.90;;;;;;5158468;27;20047;-24
2023/09/18 00:13:06;;;;;;;181.45;61.58;;;15.70;99.90;;;;;;5158398;27;20054;-24
2023/09/18 00:15:31;;;;;;;182.95;62.47;;;15.80;99.90;;;;;;5158299;27;20046;-24
2023/09/18 00:17:57;;;;;;;177.23;62.92;;;15.70;99.90;;;;;;5158311;27;20054;-24
2023/09/18 00:20:26;;;;;;;175.20;61.60;;;15.80;99.90;;;;;;5157306;27;20050;-25
2023/09/18 00:22:55;;;;;;;139.27;52.50;;;15.80;99.90;;;;;;5158746;27;20176;-25
2023/09/18 00:25:22;;;;;;;162.65;60.20;;;15.70;99.90;;;;;;5158771;27;20046;-24
2023/09/18 00:27:48;;;;;;;150.00;60.15;;;15.90;99.90;;;;;;5157450;27;20046;-25
2023/09/18 00:30:14;;;;;;;130.65;53.72;;;15.90;99.90;;;;;;5158587;27;20543;-25
2023/09/18 00:32:39;;;;;;;153.13;58.63;;;15.80;99.90;;;;;;5158348;27;20043;-24
2023/09/18 00:35:05;;;;;;;139.63;56.15;;;15.80;99.90;;;;;;5158424;27;20467;-24
2023/09/18 00:37:31;;;;;;;115.78;54.53;;;15.80;99.90;;;;;;5158539;27;20046;-24
2023/09/18 00:39:57;;;;;;;141.82;54.88;;;15.90;99.90;;;;;;5156707;27;20042;-24
2023/09/18 00:42:23;;;;;;;154.45;59.83;;;15.90;99.90;;;;;;5157832;27;20130;-24
2023/09/18 00:44:50;;;;;;;145.30;58.60;;;15.80;99.90;;;;;;5157587;27;20511;-24
2023/09/18 00:47:17;;;;;;;165.27;57.05;;;15.80;99.90;;;;;;5157756;27;20050;-24
2023/09/18 00:49:47;;;;;;;128.68;53.67;;;15.90;99.90;;;;;;5157651;27;20111;-25
2023/09/18 00:52:13;;;;;;;112.68;49.50;;;15.80;99.90;;;;;;5157932;27;20130;-24
2023/09/18 00:54:40;;;;;;;138.07;53.42;;;15.80;99.90;;;;;;5157688;27;20051;-24
2023/09/18 00:57:06;;;;;;;166.68;60.95;;;15.80;99.90;;;;;;5156992;27;20050;-25
2023/09/18 00:59:33;;;;;;;133.70;55.25;;;15.80;99.90;;;;;;5157160;27;20404;-24
2023/09/18 01:01:59;;;;;;;124.50;52.20;;;15.80;99.90;;;;;;5158324;27;20053;-24
2023/09/18 01:04:26;;;;;;;134.88;55.53;;;15.80;99.90;;;;;;5157207;27;20412;-24
2023/09/18 01:06:56;;;;;;;126.65;56.55;;;16.00;99.90;;;;;;5156194;27;20047;-24
2023/09/18 01:09:22;;;;;;;143.45;56.83;;;16.00;99.90;;;;;;5157074;27;20507;-24
2023/09/18 01:12:01;;;;;;;123.47;53.65;;;15.80;99.90;;;;;;5157838;27;20099;-24
2023/09/18 01:14:49;;;;;;;121.50;52.80;;;15.90;99.90;;;;;;5157170;27;20055;-24
2023/09/18 01:17:16;;;;;;;119.25;53.13;;;15.90;99.90;;;;;;5157755;27;20433;-25
2023/09/18 01:19:45;;;;;;;111.85;51.78;;;15.80;99.90;;;;;;5158344;27;20110;-24
2023/09/18 01:22:13;;;;;;;122.50;55.10;;;15.80;99.90;;;;;;5157045;27;20093;-24
2023/09/18 01:24:40;;;;;;;107.40;52.25;;;15.90;99.90;;;;;;5157252;27;20433;-24
2023/09/18 01:27:08;;;;;;;125.50;54.63;;;15.90;99.90;;;;;;5157004;27;20074;-24
2023/09/18 01:29:34;;;;;;;115.15;53.50;;;15.90;99.90;;;;;;5155721;27;20043;-24
2023/09/18 01:32:00;;;;;;;125.35;56.67;;;16.00;99.90;;;;;;5157413;27;20047;-24
2023/09/18 01:34:31;;;;;;;135.98;62.63;;;15.90;99.90;;;;;;5156806;27;20050;-25
2023/09/18 01:36:58;;;;;;;118.07;56.17;;;16.00;99.90;;;;;;5155506;27;20039;-25
2023/09/18 01:39:27;;;;;;;152.20;64.03;;;16.00;99.90;;;;;;5157344;27;20038;-25
2023/09/18 01:41:53;;;;;;;172.25;68.25;;;15.90;99.90;;;;;;5156671;27;20408;-24
2023/09/18 01:44:19;;;;;;;145.32;59.67;;;16.00;99.90;;;;;;5156579;27;20039;-24
2023/09/18 01:46:45;;;;;;;163.70;63.58;;;15.90;99.90;;;;;;5156609;27;20088;-24
2023/09/18 01:49:11;;;;;;;145.23;61.03;;;16.00;99.90;;;;;;5156878;27;20043;-24
2023/09/18 01:51:36;;;;;;;179.68;68.32;;;15.80;99.90;;;;;;5156417;27;20046;-24
2023/09/18 01:54:03;;;;;;;148.02;63.33;;;15.90;99.90;;;;;;5156632;27;20046;-25
2023/09/18 01:56:29;;;;;;;169.13;70.85;;;15.90;99.90;;;;;;5156272;27;20043;-24
2023/09/18 01:58:54;;;;;;;144.70;63.30;;;15.90;99.90;;;;;;5156833;27;20049;-24
2023/09/18 02:01:20;;;;;;;149.48;64.07;;;15.90;99.90;;;;;;5155956;27;20049;-24
2023/09/18 02:03:47;;;;;;;154.02;63.83;;;15.80;99.90;;;;;;5155875;27;20100;-24
2023/09/18 02:06:12;;;;;;;158.48;65.60;;;15.80;99.90;;;;;;5155677;27;20050;-24
2023/09/18 02:08:38;;;;;;;169.65;64.93;;;15.90;99.90;;;;;;5154153;27;20045;-24
2023/09/18 02:11:04;;;;;;;142.70;64.20;;;15.90;99.90;;;;;;5154834;27;20046;-25
2023/09/18 02:13:30;;;;;;;147.52;63.85;;;15.80;99.90;;;;;;5156340;27;20047;-25
2023/09/18 02:15:56;;;;;;;137.00;62.00;;;16.00;99.90;;;;;;5154863;27;20035;-24
2023/09/18 02:18:22;;;;;;;124.07;60.00;;;16.00;99.90;;;;;;5155899;27;20086;-24
2023/09/18 02:20:49;;;;;;;138.70;64.97;;;15.90;99.90;;;;;;5154912;27;20042;-24
2023/09/18 02:23:15;;;;;;;142.95;68.50;;;16.00;99.90;;;;;;5155241;27;20046;-24
2023/09/18 02:25:41;;;;;;;119.40;60.30;;;16.00;99.90;;;;;;5155875;27;20047;-24
2023/09/18 02:28:07;;;;;;;119.65;60.95;;;15.90;99.90;;;;;;5155249;27;20368;-24
2023/09/18 02:30:33;;;;;;;116.35;60.22;;;16.00;99.90;;;;;;5156015;27;20601;-24
2023/09/18 02:32:59;;;;;;;135.52;63.05;;;16.00;99.90;;;;;;5156259;27;20082;-24
2023/09/18 02:35:25;;;;;;;130.48;61.88;;;15.90;99.90;;;;;;5155619;27;20038;-24
2023/09/18 02:37:52;;;;;;;117.03;58.60;;;16.00;99.90;;;;;;5155968;27;20046;-24
2023/09/18 02:40:17;;;;;;;110.47;57.03;;;16.10;99.90;;;;;;5155615;27;20134;-24
2023/09/18 02:42:43;;;;;;;165.32;72.40;;;16.00;99.90;;;;;;5154429;27;20086;-24
2023/09/18 02:45:09;;;;;;;139.43;64.25;;;16.00;99.90;;;;;;5156378;27;20039;-24
2023/09/18 02:47:37;;;;;;;115.95;59.38;;;16.10;99.90;;;;;;5155534;27;20083;-24
2023/09/18 02:50:05;;;;;;;113.18;57.10;;;16.00;99.90;;;;;;5154462;27;20129;-24
2023/09/18 02:52:31;;;;;;;103.68;56.47;;;16.00;99.90;;;;;;5155064;27;20054;-24
2023/09/18 02:54:56;;;;;;;104.63;53.17;;;16.10;99.90;;;;;;5155657;27;20042;-24
2023/09/18 02:57:22;;;;;;;104.63;54.20;;;16.10;99.90;;;;;;5155448;27;20444;-24
2023/09/18 02:59:48;;;;;;;99.07;54.95;;;16.00;99.90;;;;;;5154415;27;20453;-24
2023/09/18 03:02:14;;;;;;;99.82;55.60;;;16.10;99.90;;;;;;5154149;27;20399;-24
2023/09/18 03:04:40;;;;;;;92.88;53.00;;;16.20;99.90;;;;;;5154992;27;20054;-24
2023/09/18 03:07:05;;;;;;;99.38;56.67;;;16.10;99.90;;;;;;5155912;27;20468;-24
2023/09/18 03:09:31;;;;;;;89.50;51.67;;;16.30;99.90;;;;;;5154169;27;20150;-24
2023/09/18 03:11:57;;;;;;;88.88;54.47;;;16.20;99.90;;;;;;5155322;27;20418;-24
2023/09/18 03:14:22;;;;;;;84.63;51.33;;;16.20;99.90;;;;;;5155199;27;20053;-24
2023/09/18 03:16:48;;;;;;;81.70;50.88;;;16.30;99.90;;;;;;5153723;27;20125;-24
2023/09/18 03:19:14;;;;;;;89.70;53.88;;;16.40;99.90;;;;;;5155223;27;20046;-24
2023/09/18 03:21:39;;;;;;;95.57;52.50;;;16.20;99.90;;;;;;5158534;27;20042;-23
2023/09/18 03:24:06;;;;;;;86.75;54.53;;;16.30;99.90;;;;;;5158451;27;20042;-23
2023/09/18 03:26:31;;;;;;;71.50;48.25;;;16.30;99.90;;;;;;5159295;27;20561;-24
2023/09/18 03:28:57;;;;;;;77.50;51.05;;;16.40;99.90;;;;;;5159623;27;20042;-24
2023/09/18 03:31:23;;;;;;;67.40;45.97;;;16.30;99.90;;;;;;5159175;27;20042;-24
2023/09/18 03:33:49;;;;;;;77.82;49.97;;;16.50;99.90;;;;;;5158022;27;20134;-24
2023/09/18 03:36:14;;;;;;;64.22;46.20;;;16.50;99.90;;;;;;5159068;27;20365;-24
2023/09/18 03:38:40;;;;;;;71.15;46.40;;;16.30;99.90;;;;;;5159054;27;20050;-24
2023/09/18 03:41:06;;;;;;;71.40;48.55;;;16.40;99.90;;;;;;5158126;27;20047;-24
2023/09/18 03:43:31;;;;;;;71.90;47.17;;;16.50;99.90;;;;;;5158993;27;20494;-24
2023/09/18 03:46:05;;;;;;;65.15;46.60;;;16.40;99.90;;;;;;5159470;27;20062;-24
2023/09/18 03:48:36;;;;;;;60.17;43.78;;;16.40;99.90;;;;;;5159511;27;20109;-24
2023/09/18 03:51:02;;;;;;;60.17;41.70;;;16.40;99.90;;;;;;5157582;27;20092;-24
2023/09/18 03:53:27;;;;;;;68.03;44.58;;;16.40;99.90;;;;;;5158811;27;20074;-24
2023/09/18 03:55:53;;;;;;;68.68;48.05;;;16.40;99.90;;;;;;5140794;27;20074;-23
2023/09/18 03:58:19;;;;;;;66.70;46.47;;;16.40;99.90;;;;;;5158691;27;20135;-24
2023/09/18 04:00:46;;;;;;;63.38;44.22;;;16.40;99.90;;;;;;5158709;27;20042;-24
2023/09/18 04:03:11;;;;;;;70.43;46.60;;;16.30;99.90;;;;;;5158672;27;20129;-25
2023/09/18 04:05:37;;;;;;;61.50;43.33;;;16.40;99.90;;;;;;5158683;27;20508;-24
2023/09/18 04:08:03;;;;;;;54.67;41.15;;;16.30;99.90;;;;;;5157590;27;20471;-24
2023/09/18 04:10:29;;;;;;;60.05;41.38;;;16.30;99.90;;;;;;5158524;27;20103;-24
2023/09/18 04:12:55;;;;;;;58.95;41.88;;;16.40;99.90;;;;;;5157319;27;20090;-24
2023/09/18 04:15:22;;;;;;;58.42;42.30;;;16.40;99.90;;;;;;5157132;27;20039;-24
2023/09/18 04:17:48;;;;;;;55.25;39.88;;;16.40;99.90;;;;;;5157235;27;20058;-24
2023/09/18 04:20:14;;;;;;;54.40;38.53;;;16.50;99.90;;;;;;5158242;27;20043;-24
2023/09/18 04:22:45;;;;;;;50.25;36.63;;;16.50;99.90;;;;;;5158582;27;20099;-24
2023/09/18 04:25:12;;;;;;;50.10;37.30;;;16.50;99.90;;;;;;5157001;27;20053;-24
2023/09/18 04:27:37;;;;;;;46.72;35.95;;;16.60;99.90;;;;;;5158175;27;20049;-24
2023/09/18 04:30:03;;;;;;;46.08;34.00;;;16.60;99.90;;;;;;5158351;27;20043;-24
2023/09/18 04:32:29;;;;;;;46.90;34.53;;;16.60;99.90;;;;;;5157653;27;20082;-24
2023/09/18 04:34:55;;;;;;;49.10;35.85;;;16.70;99.90;;;;;;5158144;27;20082;-24
2023/09/18 04:37:21;;;;;;;43.53;32.25;;;16.60;99.90;;;;;;5156455;27;20039;-24
2023/09/18 04:39:46;;;;;;;44.60;33.92;;;16.60;99.90;;;;;;5157929;27;20090;-24
2023/09/18 04:42:12;;;;;;;45.05;34.33;;;16.60;99.90;;;;;;5156851;27;20095;-24
2023/09/18 04:44:38;;;;;;;45.30;34.13;;;16.60;99.90;;;;;;5158413;27;20050;-24
2023/09/18 04:47:03;;;;;;;45.30;34.17;;;16.70;99.90;;;;;;5157809;27;20038;-24
2023/09/18 04:49:31;;;;;;;44.58;31.65;;;16.70;99.90;;;;;;5157674;27;20500;-24
2023/09/18 04:51:58;;;;;;;45.60;33.25;;;16.60;99.90;;;;;;5157700;27;20050;-24
2023/09/18 04:54:24;;;;;;;46.20;32.25;;;16.60;99.90;;;;;;5156477;27;20049;-25
2023/09/18 04:56:50;;;;;;;42.08;32.13;;;16.60;99.90;;;;;;5139290;27;20426;-24
2023/09/18 04:59:15;;;;;;;36.55;29.00;;;16.60;99.90;;;;;;5157500;27;20042;-24
2023/09/18 05:01:42;;;;;;;41.95;32.42;;;16.60;99.90;;;;;;5157553;27;20139;-24
2023/09/18 05:04:08;;;;;;;40.47;32.38;;;16.80;99.90;;;;;;5157274;27;20046;-24
2023/09/18 05:06:34;;;;;;;39.85;32.45;;;16.70;99.90;;;;;;5156257;27;20049;-24
2023/09/18 05:08:59;;;;;;;44.05;32.03;;;16.80;99.90;;;;;;5157327;27;20050;-24
2023/09/18 05:11:29;;;;;;;35.28;27.75;;;16.80;99.90;;;;;;5156357;27;20134;-24
2023/09/18 05:13:54;;;;;;;38.70;27.67;;;16.80;99.90;;;;;;5156253;27;20480;-24
2023/09/18 05:16:20;;;;;;;36.00;27.88;;;16.90;99.90;;;;;;5157424;27;20121;-24
2023/09/18 05:18:46;;;;;;;36.15;26.90;;;16.90;99.90;;;;;;5157724;27;20043;-24
2023/09/18 05:21:12;;;;;;;38.35;27.55;;;16.90;99.90;;;;;;5157081;27;20477;-24
2023/09/18 05:23:37;;;;;;;36.78;28.33;;;16.90;99.90;;;;;;5157007;27;20039;-25
2023/09/18 05:26:03;;;;;;;35.70;26.90;;;16.90;99.90;;;;;;5156966;27;20035;-24
2023/09/18 05:28:29;;;;;;;34.97;27.15;;;17.00;99.90;;;;;;5155687;27;20039;-24
2023/09/18 05:30:54;;;;;;;36.55;28.02;;;17.00;99.90;;;;;;5157237;27;20359;-24
2023/09/18 05:33:20;;;;;;;34.00;26.83;;;17.00;99.90;;;;;;5156330;27;20119;-24
2023/09/18 05:35:48;;;;;;;34.40;26.75;;;16.90;99.90;;;;;;5156711;27;20091;-24
2023/09/18 05:38:17;;;;;;;30.23;25.05;;;16.90;99.90;;;;;;5156832;27;20103;-24
2023/09/18 05:40:44;;;;;;;33.53;27.67;;;16.90;99.90;;;;;;5156755;27;20103;-24
2023/09/18 05:43:11;;;;;;;33.83;25.02;;;17.00;99.90;;;;;;5156612;27;20053;-24
2023/09/18 05:45:38;;;;;;;30.10;24.60;;;17.00;99.90;;;;;;5138422;27;20047;-24
2023/09/18 05:48:04;;;;;;;30.73;24.98;;;17.00;99.90;;;;;;5155460;27;20476;-23
2023/09/18 05:50:32;;;;;;;30.42;24.95;;;17.10;99.90;;;;;;5156604;27;20043;-24
2023/09/18 05:53:03;;;;;;;28.40;22.85;;;17.10;99.90;;;;;;5157361;27;20047;-24
2023/09/18 05:55:30;;;;;;;26.10;21.73;;;17.10;99.90;;;;;;5156515;27;20043;-24
2023/09/18 05:57:57;;;;;;;28.85;22.98;;;17.10;99.90;;;;;;5154901;27;20418;-24
2023/09/18 06:00:23;;;;;;;26.33;20.45;;;17.10;99.90;;;;;;5155284;27;20046;-24
2023/09/18 06:02:51;;;;;;;24.50;20.40;;;17.10;99.90;;;;;;5155207;27;20054;-24
2023/09/18 06:05:17;;;;;;;22.85;20.02;;;17.20;99.90;;;;;;5156376;27;20144;-24
2023/09/18 06:07:44;;;;;;;24.17;21.00;;;17.30;99.90;;;;;;5155309;27;20348;-24
2023/09/18 06:10:10;;;;;;;23.65;19.65;;;17.30;99.90;;;;;;5156200;27;20053;-24
2023/09/18 06:12:43;;;;;;;27.27;19.65;;;17.30;99.90;;;;;;5155947;27;20042;-24
2023/09/18 06:15:11;;;;;;;25.67;19.63;;;17.30;99.90;;;;;;5139563;27;20043;-24
2023/09/18 06:17:41;;;;;;;19.55;17.38;;;17.30;99.90;;;;;;5156017;27;20052;-24
2023/09/18 06:20:11;;;;;;;23.02;19.55;;;17.30;99.90;;;;;;5156022;27;20057;-24
2023/09/18 06:22:42;;;;;;;24.80;17.50;;;17.30;99.90;;;;;;5154787;27;20369;-24
2023/09/18 06:25:13;;;;;;;23.52;18.10;;;17.40;99.90;;;;;;5155903;27;20472;-24
2023/09/18 06:27:38;;;;;;;25.27;19.20;;;17.30;99.90;;;;;;5155844;27;20057;-24
2023/09/18 06:30:05;;;;;;;22.73;18.73;;;17.40;99.90;;;;;;5155803;27;20121;-24
2023/09/18 06:32:31;;;;;;;22.27;16.88;;;17.40;99.90;;;;;;5154630;27;20047;-24
2023/09/18 06:34:57;;;;;;;22.02;16.10;;;17.30;99.90;;;;;;5155028;27;20045;-24
2023/09/18 06:37:24;;;;;;;17.55;14.18;;;17.40;99.90;;;;;;5155725;27;20058;-24
2023/09/18 06:39:56;;;;;;;18.45;15.30;;;17.40;99.90;;;;;;5155905;27;20043;-24
2023/09/18 06:42:25;;;;;;;19.47;14.00;;;17.50;99.90;;;;;;5155202;27;20042;-25
2023/09/18 06:44:50;;;;;;;17.70;13.15;;;17.60;99.90;;;;;;5155907;27;20050;-24
2023/09/18 06:47:16;;;;;;;13.85;12.07;;;17.70;99.90;;;;;;5155492;27;20042;-24
2023/09/18 06:49:44;;;;;;;17.67;12.20;;;17.70;99.90;;;;;;5154262;27;20293;-24
2023/09/18 06:52:13;;;;;;;16.08;12.20;;;17.90;99.90;;;;;;5155749;27;20050;-24
2023/09/18 06:54:38;;;;;;;19.42;12.82;;;17.90;99.90;;;;;;5155158;27;20073;-24
2023/09/18 06:57:04;;;;;;;18.13;13.85;;;18.00;99.90;;;;;;5155519;27;20089;-25
2023/09/18 06:59:35;;;;;;;19.92;13.52;;;18.10;99.90;;;;;;5155938;27;20126;-24
2023/09/18 07:02:01;;;;;;;17.70;14.73;;;18.10;99.90;;;;;;5155756;27;20400;-25
2023/09/18 07:04:27;;;;;;;17.95;14.60;;;18.20;99.90;;;;;;5155050;27;20493;-24
2023/09/18 07:06:53;;;;;;;20.42;14.50;;;18.20;99.90;;;;;;5155004;27;20054;-24
2023/09/18 07:09:22;;;;;;;15.05;13.27;;;18.30;99.90;;;;;;5155236;27;20050;-25
2023/09/18 07:11:49;;;;;;;18.00;14.52;;;18.20;99.90;;;;;;5154894;27;20046;-24
2023/09/18 07:14:15;;;;;;;20.15;14.27;;;18.30;99.90;;;;;;5155272;27;20046;-24
2023/09/18 07:16:40;;;;;;;20.42;14.07;;;18.30;99.90;;;;;;5155155;27;20092;-24
2023/09/18 07:19:06;;;;;;;16.88;13.63;;;18.40;99.90;;;;;;5155476;27;20055;-24
2023/09/18 07:21:34;;;;;;;17.80;13.80;;;18.40;99.90;;;;;;5155187;27;20086;-24
2023/09/18 07:24:00;;;;;;;18.00;13.75;;;18.50;99.90;;;;;;5154214;27;20053;-25
2023/09/18 07:26:26;;;;;;;15.45;13.13;;;18.50;99.90;;;;;;5154722;27;20126;-24
2023/09/18 07:28:51;;;;;;;17.27;12.90;;;18.50;99.90;;;;;;5154355;27;20472;-24
2023/09/18 07:31:17;;;;;;;14.43;12.35;;;18.50;99.90;;;;;;5155648;27;20152;-25
2023/09/18 07:33:43;;;;;;;15.73;11.75;;;18.50;99.90;;;;;;5153887;27;20054;-24
2023/09/18 07:36:11;;;;;;;16.15;12.60;;;18.50;99.90;;;;;;5154114;27;20099;-25
2023/09/18 07:38:43;;;;;;;18.38;11.77;;;18.50;99.90;;;;;;5154730;27;20537;-24
2023/09/18 07:41:09;;;;;;;15.38;12.68;;;18.40;99.90;;;;;;5155638;27;20114;-24
2023/09/18 07:43:34;;;;;;;20.40;14.98;;;18.40;99.90;;;;;;5155008;27;20054;-23
2023/09/18 07:46:01;;;;;;;22.80;15.10;;;18.20;99.90;;;;;;5154916;27;20046;-23
2023/09/18 07:48:27;;;;;;;23.83;15.63;;;18.20;99.90;;;;;;5154974;27;20038;-23
2023/09/18 07:50:54;;;;;;;21.10;14.63;;;18.00;99.90;;;;;;5154939;27;20480;-23
2023/09/18 07:53:20;;;;;;;21.45;15.48;;;17.80;99.90;;;;;;5154968;27;20053;-23
2023/09/18 07:55:55;;;;;;;18.58;14.93;;;17.90;99.90;;;;;;5155307;27;20125;-23
2023/09/18 07:58:20;;;;;;;19.60;14.70;;;17.70;99.90;;;;;;5155182;27;20514;-23
2023/09/18 08:00:48;;;;;;;18.15;14.02;;;17.70;99.90;;;;;;5154866;27;20042;-23
2023/09/18 08:03:13;;;;;;;20.35;14.50;;;17.70;99.90;;;;;;5154911;27;20109;-23
2023/09/18 08:05:40;;;;;;;21.23;14.35;;;17.90;99.90;;;;;;5155259;27;20054;-22
2023/09/18 08:08:05;;;;;;;24.42;13.80;;;17.90;99.90;;;;;;5156902;27;20050;-22
2023/09/18 08:10:31;;;;;;;27.42;15.55;;;17.80;99.90;;;;;;5158573;27;20494;-22
2023/09/18 08:12:57;;;;;;;19.88;15.57;;;17.80;99.90;;;;;;5159072;27;20430;-22
2023/09/18 08:15:23;;;;;;;20.08;13.85;;;17.80;99.90;;;;;;5158357;27;20050;-22
2023/09/18 08:17:49;;;;;;;17.70;13.70;;;17.80;99.90;;;;;;5158371;27;20523;-22
2023/09/18 08:20:15;;;;;;;14.75;11.82;;;17.90;99.90;;;;;;5157654;27;20055;-22
2023/09/18 08:22:42;;;;;;;18.83;15.75;;;18.10;99.90;;;;;;5158321;27;20058;-22
2023/09/18 08:25:10;;;;;;;16.98;12.52;;;18.00;99.90;;;;;;5157296;27;20038;-22
2023/09/18 08:27:41;;;;;;;20.13;14.23;;;18.10;99.90;;;;;;5156787;27;20452;-22
2023/09/18 08:30:09;;;;;;;20.85;13.90;;;17.90;99.90;;;;;;5157836;27;20111;-22
2023/09/18 08:32:36;;;;;;;19.02;15.02;;;17.90;99.90;;;;;;5158106;27;20054;-22
2023/09/18 08:35:02;;;;;;;18.95;12.95;;;18.00;99.90;;;;;;5157304;27;20053;-22
2023/09/18 08:37:28;;;;;;;15.20;13.05;;;17.80;99.90;;;;;;5139861;27;20046;-22
2023/09/18 08:39:54;;;;;;;17.85;13.85;;;17.80;99.90;;;;;;5157945;27;20042;-22
2023/09/18 08:42:21;;;;;;;18.75;13.40;;;17.80;99.90;;;;;;5158469;27;20082;-22
2023/09/18 08:44:50;;;;;;;19.25;13.68;;;18.10;99.90;;;;;;5157624;27;20095;-22
2023/09/18 08:47:18;;;;;;;19.90;14.30;;;18.10;99.90;;;;;;5157804;27;20092;-22
2023/09/18 08:49:46;;;;;;;21.17;13.82;;;18.10;99.90;;;;;;5157697;27;20082;-22
2023/09/18 08:52:14;;;;;;;15.68;11.93;;;18.10;99.90;;;;;;5157752;27;20090;-22
2023/09/18 08:54:40;;;;;;;16.65;13.60;;;18.10;99.90;;;;;;5158517;27;20091;-22
2023/09/18 08:57:07;;;;;;;20.30;13.88;;;18.20;99.90;;;;;;5157494;27;20472;-22
2023/09/18 08:59:38;;;;;;;16.55;12.90;;;18.30;99.90;;;;;;5139356;27;20050;-22
2023/09/18 09:02:04;;;;;;;16.38;13.05;;;18.40;99.90;;;;;;5157012;27;20042;-22
2023/09/18 09:04:30;;;;;;;21.13;15.00;;;18.50;99.90;;;;;;5156249;27;20039;-22
2023/09/18 09:06:59;;;;;;;20.90;16.23;;;18.40;99.90;;;;;;5157407;27;20047;-22
2023/09/18 09:09:28;;;;;;;20.33;15.40;;;18.50;99.90;;;;;;5156824;27;20043;-22
2023/09/18 09:11:54;;;;;;;17.80;14.25;;;18.50;99.90;;;;;;5157312;27;20046;-22
2023/09/18 09:14:22;;;;;;;23.55;15.60;;;18.80;99.90;;;;;;5139143;27;20043;-22
2023/09/18 09:16:51;;;;;;;20.58;15.10;;;18.60;99.90;;;;;;5157187;27;20043;-22
2023/09/18 09:19:18;;;;;;;23.55;16.13;;;18.80;99.90;;;;;;5155584;27;20034;-22
2023/09/18 09:21:46;;;;;;;21.50;15.98;;;18.70;99.90;;;;;;5155955;27;20047;-22
2023/09/18 09:24:13;;;;;;;19.45;16.65;;;18.80;99.90;;;;;;5157101;27;20050;-22
2023/09/18 09:26:41;;;;;;;17.95;15.43;;;18.90;99.90;;;;;;5157316;27;20049;-22
2023/09/18 09:29:18;;;;;;;19.00;16.15;;;19.00;99.90;;;;;;5157269;27;20149;-23
2023/09/18 09:31:45;;;;;;;16.25;13.05;;;18.90;99.90;;;;;;5157224;27;20042;-22
2023/09/18 09:34:11;;;;;;;20.05;15.95;;;19.10;99.90;;;;;;5156929;27;20043;-22
2023/09/18 09:36:52;;;;;;;21.67;15.05;;;19.20;99.90;;;;;;5156498;27;20046;-23
2023/09/18 09:39:21;;;;;;;19.38;14.32;;;19.30;99.90;;;;;;5156154;27;20047;-23
2023/09/18 09:41:49;;;;;;;16.80;13.43;;;19.40;99.90;;;;;;5155770;27;20072;-23
2023/09/18 09:44:15;;;;;;;16.63;13.55;;;19.30;99.90;;;;;;5156725;27;20054;-23
2023/09/18 09:46:48;;;;;;;17.50;12.60;;;19.20;99.90;;;;;;5155466;27;20042;-23
2023/09/18 09:49:17;;;;;;;16.17;11.93;;;19.20;99.90;;;;;;5156499;27;20039;-23
2023/09/18 09:51:43;;;;;;;14.23;12.05;;;19.30;99.90;;;;;;5155562;27;20058;-24
2023/09/18 09:54:10;;;;;;;18.10;12.57;;;19.30;99.90;;;;;;5156574;27;20552;-24
2023/09/18 09:56:43;;;;;;;15.48;11.35;;;19.30;99.90;;;;;;5155761;27;20046;-24
2023/09/18 09:59:10;;;;;;;14.05;11.45;;;19.40;99.90;;;;;;5156412;27;20567;-24
2023/09/18 10:01:36;;;;;;;14.77;11.55;;;19.40;99.90;;;;;;5155370;27;20053;-24
2023/09/18 10:04:10;;;;;;;15.73;11.75;;;19.60;99.90;;;;;;5155969;27;20448;-24
2023/09/18 10:06:36;;;;;;;13.88;12.15;;;19.80;99.90;;;;;;5157648;27;20111;-24
2023/09/18 10:09:05;;;;;;;15.05;11.88;;;20.00;99.90;;;;;;5156245;27;20046;-24
2023/09/18 10:11:33;;;;;;;13.45;11.43;;;20.00;99.90;;;;;;5156225;27;20047;-24
2023/09/18 10:14:12;;;;;;;12.93;11.48;;;20.00;99.90;;;;;;5156151;27;20072;-24
2023/09/18 10:16:41;;;;;;;13.60;11.90;;;20.20;99.90;;;;;;5156637;27;20047;-24
2023/09/18 10:19:48;;;;;;;13.93;11.85;;;20.30;99.90;;;;;;5156061;27;20038;-24
2023/09/18 10:22:42;;;;;;;16.58;11.82;;;20.40;99.90;;;;;;5072053;28;20052;-24
2023/09/18 10:25:23;;;;;;;13.60;11.52;;;20.50;99.90;;;;;;5070084;28;20139;-24
2023/09/18 10:27:58;;;;;;;13.52;11.75;;;20.60;99.90;;;;;;5136210;27;20385;-24
2023/09/18 10:30:25;;;;;;;12.10;10.60;;;20.70;99.90;;;;;;5155702;27;20034;-24
2023/09/18 10:32:51;;;;;;;14.38;11.55;;;20.60;99.90;;;;;;5156381;27;20050;-24
2023/09/18 10:35:19;;;;;;;14.10;12.48;;;20.50;99.90;;;;;;5155666;27;20053;-24
2023/09/18 10:37:47;;;;;;;16.17;12.20;;;20.60;99.90;;;;;;5156230;27;20111;-24
2023/09/18 10:40:13;;;;;;;16.25;11.15;;;20.90;99.90;;;;;;5155681;27;20058;-24
2023/09/18 10:42:40;;;;;;;13.65;10.68;;;21.00;99.90;;;;;;5155696;27;20046;-24
2023/09/18 10:45:11;;;;;;;12.95;10.68;;;21.00;99.90;;;;;;5154436;27;20053;-24
2023/09/18 10:47:40;;;;;;;10.13;8.68;;;21.10;99.90;;;;;;5155456;27;20050;-24
2023/09/18 10:50:07;;;;;;;9.73;8.73;;;21.20;99.90;;;;;;5155488;27;20058;-24
2023/09/18 10:52:38;;;;;;;10.70;8.55;;;21.50;99.90;;;;;;5155488;27;20102;-24
2023/09/18 10:55:04;;;;;;;12.43;8.80;;;21.70;99.90;;;;;;5154326;27;20050;-24
2023/09/18 10:57:35;;;;;;;9.80;7.82;;;22.20;99.90;;;;;;5155420;27;20053;-24
2023/09/18 11:00:13;;;;;;;9.70;7.40;;;22.40;99.90;;;;;;5155499;27;20117;-24
2023/09/18 11:02:41;;;;;;;11.02;7.32;;;22.30;99.90;;;;;;5154369;27;20492;-24
2023/09/18 11:05:06;;;;;;;8.05;5.97;;;21.70;99.90;;;;;;5155134;27;20094;-24
2023/09/18 11:07:32;;;;;;;8.52;6.38;;;21.60;99.90;;;;;;5155219;27;20086;-25
2023/09/18 11:09:58;;;;;;;6.15;5.57;;;22.00;99.90;;;;;;5155290;27;20035;-24
2023/09/18 11:12:44;;;;;;;8.82;5.50;;;22.60;99.90;;;;;;5155361;27;20095;-24
2023/09/18 11:15:24;;;;;;;7.97;5.00;;;23.10;99.90;;;;;;5154788;27;20094;-24
2023/09/18 11:17:59;;;;;;;7.18;5.25;;;23.00;1.40;;;;;;5156182;27;20039;-24
2023/09/18 11:20:27;;;;;;;5.90;4.88;;;23.00;1.00;;;;;;5154021;27;20050;-25
2023/09/18 11:23:16;;;;;;;4.68;3.67;;;23.40;94.50;;;;;;5155486;27;20050;-25
2023/09/18 11:25:45;;;;;;;5.85;3.65;;;23.40;1.00;;;;;;5155521;27;20038;-25
2023/09/18 11:28:25;;;;;;;4.53;3.38;;;23.70;99.90;;;;;;5154482;27;20053;-25
2023/09/18 11:30:57;;;;;;;4.47;2.83;;;23.90;1.00;;;;;;5155960;27;20043;-25
2023/09/18 11:33:43;;;;;;;4.07;2.80;;;24.10;1.00;;;;;;5154516;27;20058;-25
2023/09/18 11:36:14;;;;;;;7.25;3.42;;;24.00;99.90;;;;;;5155079;27;20117;-25
2023/09/18 11:38:53;;;;;;;8.05;3.33;;;24.20;99.90;;;;;;5155119;27;20047;-26
2023/09/18 11:41:25;;;;;;;3.15;2.50;;;24.10;99.90;;;;;;5154811;27;20064;-25
2023/09/18 11:43:51;;;;;;;6.85;2.88;;;23.70;99.90;;;;;;5159740;27;20380;-25
2023/09/18 11:46:20;;;;;;;4.35;3.13;;;23.20;57.60;;;;;;5159643;27;20051;-25
2023/09/18 11:48:50;;;;;;;3.17;2.53;;;22.60;1.00;;;;;;5159003;27;20049;-25
2023/09/18 11:51:23;;;;;;;4.10;2.88;;;22.80;99.90;;;;;;5158592;27;20405;-25
2023/09/18 11:53:53;;;;;;;2.95;2.33;;;22.80;99.90;;;;;;5157828;27;20046;-25
2023/09/18 11:56:22;;;;;;;5.32;3.10;;;22.50;99.90;;;;;;5159380;27;20043;-25
2023/09/18 11:58:49;;;;;;;4.60;2.63;;;22.30;1.00;;;;;;5158801;27;20046;-25
2023/09/18 12:01:15;;;;;;;8.65;3.65;;;22.20;99.90;;;;;;5157220;27;20499;-25
2023/09/18 12:03:41;;;;;;;4.88;2.60;;;21.90;99.90;;;;;;5158775;27;20053;-25
2023/09/18 12:06:09;;;;;;;4.43;2.92;;;21.80;99.90;;;;;;5159131;27;20051;-25
2023/09/18 12:08:36;;;;;;;4.47;2.55;;;21.70;1.00;;;;;;5158610;27;20046;-25
2023/09/18 12:11:05;;;;;;;3.67;2.55;;;22.10;1.00;;;;;;5158592;27;20046;-25
2023/09/18 12:13:32;;;;;;;6.10;2.30;;;22.50;1.00;;;;;;5157603;27;20043;-26
2023/09/18 12:16:05;;;;;;;4.63;2.65;;;22.80;99.90;;;;;;5158429;27;20042;-25
2023/09/18 12:18:34;;;;;;;4.65;2.78;;;23.00;99.90;;;;;;5158757;27;20066;-25
2023/09/18 12:21:04;;;;;;;6.00;2.85;;;22.90;99.90;;;;;;5158420;27;20057;-26
2023/09/18 12:23:36;;;;;;;4.15;2.60;;;22.60;99.90;;;;;;5158872;27;20089;-26
2023/09/18 12:26:03;;;;;;;5.15;3.40;;;22.20;99.90;;;;;;5158908;27;20046;-25
2023/09/18 12:28:29;;;;;;;3.80;2.65;;;22.40;1.00;;;;;;5157260;27;20058;-25
2023/09/18 12:30:56;;;;;;;7.50;3.42;;;22.30;99.90;;;;;;5158155;27;20046;-25